Time;durP1;ratioP1;P1;durP2;ratioP2;P2;SDS_P1;SDS_P2;PMS_P1;PMS_P2;Temp;Humidity;BMP_temperature;BMP_pressure;BME280_temperature;BME280_humidity;BME280_pressure;Samples;Min_cycle;Max_cycle;Signal;HPM_P1;HPM_P2
2021/05/31 00:01:12;;;;;;;24.05;13.02;;;;;;;16.94;54.43;102270.97;5030204;28;20033;-83
2021/05/31 00:03:38;;;;;;;18.98;12.70;;;;;;;16.86;55.36;102268.06;5030931;28;20057;-83
2021/05/31 00:06:04;;;;;;;20.92;13.45;;;;;;;16.71;56.36;102265.75;5012548;28;20033;-83
2021/05/31 00:08:29;;;;;;;24.10;13.68;;;;;;;16.73;56.03;102262.88;5012593;28;20033;-83
2021/05/31 00:10:54;;;;;;;24.90;12.48;;;;;;;16.79;56.25;102262.34;5012573;28;20220;-83
2021/05/31 00:13:20;;;;;;;17.48;10.52;;;;;;;16.79;56.17;102267.78;5030215;28;20029;-83
2021/05/31 00:15:46;;;;;;;18.50;12.30;;;;;;;16.73;56.58;102266.44;5045519;28;20025;-83
2021/05/31 00:18:15;;;;;;;25.33;15.45;;;;;;;16.60;57.10;102260.41;5030296;28;20464;-83
2021/05/31 00:20:41;;;;;;;20.92;13.00;;;;;;;16.64;56.97;102256.41;5030218;28;20072;-83
2021/05/31 00:23:06;;;;;;;26.27;13.40;;;;;;;16.55;56.66;102249.09;5012152;28;20030;-83
2021/05/31 00:25:32;;;;;;;21.63;13.68;;;;;;;16.54;55.99;102248.22;5029982;28;20379;-83
2021/05/31 00:27:57;;;;;;;19.00;13.43;;;;;;;16.48;56.25;102246.06;5030310;28;20029;-83
2021/05/31 00:30:23;;;;;;;20.55;14.20;;;;;;;16.55;55.43;102243.66;5030045;28;20049;-83
2021/05/31 00:32:50;;;;;;;25.40;14.02;;;;;;;16.41;56.16;102241.34;5030007;28;20406;-83
2021/05/31 00:35:16;;;;;;;26.63;15.20;;;;;;;16.37;56.27;102237.16;5029882;28;20029;-83
2021/05/31 00:37:41;;;;;;;26.92;16.15;;;;;;;16.37;56.29;102246.16;5030733;28;20021;-83
2021/05/31 00:40:09;;;;;;;29.58;15.20;;;;;;;16.32;56.72;102234.88;5029195;28;20026;-83
2021/05/31 00:42:35;;;;;;;25.70;15.63;;;;;;;16.36;56.55;102238.16;5029991;28;20040;-83
2021/05/31 00:45:00;;;;;;;23.15;13.07;;;;;;;16.29;57.26;102246.84;5029911;28;20075;-83
2021/05/31 00:47:26;;;;;;;25.92;14.63;;;;;;;16.29;56.94;102238.72;5029509;28;20033;-83
2021/05/31 00:49:52;;;;;;;26.17;14.98;;;;;;;16.22;57.10;102244.81;5011892;28;20033;-84
2021/05/31 00:52:17;;;;;;;22.35;14.18;;;;;;;16.16;57.11;102248.06;5029970;28;20824;-83
2021/05/31 00:54:43;;;;;;;30.08;15.77;;;;;;;16.18;57.07;102237.94;5029615;28;20044;-83
2021/05/31 00:57:09;;;;;;;25.70;14.95;;;;;;;16.23;57.18;102246.53;5029183;28;20104;-83
2021/05/31 00:59:35;;;;;;;26.08;14.68;;;;;;;16.26;56.61;102233.56;5011597;28;20022;-83
2021/05/31 01:02:01;;;;;;;20.88;14.73;;;;;;;16.13;56.77;102249.22;5012113;28;20120;-83
2021/05/31 01:04:26;;;;;;;25.83;14.80;;;;;;;16.14;56.87;102252.78;5029450;28;20568;-83
2021/05/31 01:07:02;;;;;;;27.10;14.45;;;;;;;16.14;56.25;102247.34;5029656;28;20026;-83
2021/05/31 01:09:45;;;;;;;21.45;13.43;;;;;;;16.12;56.20;102247.47;5029381;28;20045;-83
2021/05/31 01:12:26;;;;;;;19.80;12.02;;;;;;;16.11;56.20;102245.78;5029294;28;20557;-83
2021/05/31 01:15:12;;;;;;;26.10;14.48;;;;;;;16.01;56.42;102250.31;5029068;28;20154;-83
2021/05/31 01:17:51;;;;;;;19.45;14.05;;;;;;;16.01;56.59;102251.16;5029271;28;20398;-83
2021/05/31 01:20:43;;;;;;;22.48;13.38;;;;;;;16.00;56.34;102249.41;5029416;28;20033;-83
2021/05/31 01:23:10;;;;;;;;;;;;;;;16.01;56.50;102239.44;5011705;28;20033;-83
2021/05/31 01:26:03;;;;;;;26.30;14.07;;;;;;;16.03;56.36;102238.28;5029448;28;20329;-83
2021/05/31 01:28:41;;;;;;;23.48;14.27;;;;;;;16.02;56.52;102238.44;5020945;28;20405;-83
2021/05/31 01:31:06;;;;;;;29.60;14.15;;;;;;;15.99;56.75;102236.84;5012607;28;20665;-83
2021/05/31 01:33:35;;;;;;;22.80;14.00;;;;;;;15.87;57.16;102231.63;5028906;28;20033;-83
2021/05/31 01:36:01;;;;;;;23.55;14.82;;;;;;;15.87;56.69;102232.50;5029172;28;20036;-83
2021/05/31 01:38:30;;;;;;;34.05;16.27;;;;;;;15.84;56.78;102239.03;5011498;28;20030;-84
2021/05/31 01:40:56;;;;;;;24.02;15.23;;;;;;;15.85;56.52;102231.75;5011279;28;20392;-83
2021/05/31 01:43:23;;;;;;;17.98;12.52;;;;;;;15.85;56.40;102239.91;5029225;28;20037;-84
2021/05/31 01:45:48;;;;;;;23.60;14.80;;;;;;;15.78;56.23;102234.16;5011627;28;20033;-84
2021/05/31 01:48:14;;;;;;;28.08;14.02;;;;;;;15.76;56.00;102241.59;5029090;28;20099;-84
2021/05/31 01:50:40;;;;;;;21.48;14.20;;;;;;;15.72;56.09;102237.41;5028984;28;20029;-83
2021/05/31 01:53:06;;;;;;;15.02;10.77;;;;;;;15.75;55.97;102236.28;5033932;28;20040;-84
2021/05/31 01:55:33;;;;;;;19.83;13.50;;;;;;;15.61;56.07;102237.41;5016858;28;20025;-84
2021/05/31 01:57:59;;;;;;;18.02;10.35;;;;;;;15.60;56.10;102241.13;5016147;28;20029;-83
2021/05/31 02:00:25;;;;;;;22.08;14.63;;;;;;;15.42;57.75;102238.16;5015192;28;20025;-83
2021/05/31 02:02:52;;;;;;;21.23;14.43;;;;;;;15.44;57.91;102241.59;5032763;28;20091;-83
2021/05/31 02:05:17;;;;;;;21.70;14.13;;;;;;;15.49;58.29;102238.47;5015121;28;20397;-83
2021/05/31 02:07:43;;;;;;;23.55;12.95;;;;;;;15.52;57.93;102238.22;5032659;28;20030;-84
2021/05/31 02:10:11;;;;;;;27.83;15.60;;;;;;;15.34;59.30;102236.09;5032889;28;20080;-83
2021/05/31 02:12:57;;;;;;;20.08;11.90;;;;;;;15.39;58.95;102238.41;5032487;28;20095;-83
2021/05/31 02:15:47;;;;;;;18.95;12.85;;;;;;;15.21;59.03;102238.09;5014947;28;20037;-84
2021/05/31 02:18:44;;;;;;;21.30;14.65;;;;;;;15.22;59.24;102239.00;5032618;28;20116;-84
2021/05/31 02:21:12;;;;;;;22.05;12.65;;;;;;;15.18;59.40;102235.66;5014493;28;20045;-83
2021/05/31 02:23:40;;;;;;;17.83;12.23;;;;;;;15.04;59.61;102244.97;5015355;28;20120;-84
2021/05/31 02:26:06;;;;;;;27.23;15.18;;;;;;;14.96;60.01;102239.31;5032683;28;20029;-83
2021/05/31 02:28:32;;;;;;;31.80;14.48;;;;;;;15.13;59.56;102243.34;5014444;28;20034;-84
2021/05/31 02:30:59;;;;;;;23.63;13.18;;;;;;;15.11;59.07;102235.31;5014181;28;20033;-83
2021/05/31 02:33:25;;;;;;;23.50;12.93;;;;;;;15.11;59.02;102235.31;5032324;28;20505;-84
2021/05/31 02:35:51;;;;;;;20.13;13.15;;;;;;;15.05;59.39;102230.41;5014343;28;20034;-84
2021/05/31 02:38:16;;;;;;;29.80;15.20;;;;;;;14.98;59.91;102234.63;5014642;28;20386;-83
2021/05/31 02:40:42;;;;;;;27.55;15.70;;;;;;;14.96;59.87;102228.47;5014087;28;20116;-83
2021/05/31 02:43:10;;;;;;;28.98;16.85;;;;;;;15.04;59.83;102225.13;5014387;28;20029;-83
2021/05/31 02:45:36;;;;;;;22.77;14.70;;;;;;;15.12;59.03;102230.75;5031928;28;20432;-83
2021/05/31 02:48:04;;;;;;;26.73;15.80;;;;;;;15.12;58.80;102230.75;5032247;28;20064;-83
2021/05/31 02:50:29;;;;;;;27.17;14.48;;;;;;;15.07;58.76;102228.44;5015347;28;20137;-84
2021/05/31 02:52:56;;;;;;;22.10;14.95;;;;;;;15.08;58.54;102223.88;5031745;28;20392;-83
2021/05/31 02:55:24;;;;;;;21.67;15.18;;;;;;;15.12;57.91;102231.63;5013879;28;20440;-83
2021/05/31 02:57:50;;;;;;;20.83;15.35;;;;;;;15.11;58.18;102223.63;5031914;28;20040;-83
2021/05/31 03:00:19;;;;;;;25.40;14.27;;;;;;;15.12;58.38;102219.91;5031910;28;20485;-83
2021/05/31 03:02:45;;;;;;;30.13;17.58;;;;;;;15.07;58.17;102224.88;5030730;28;20051;-83
2021/05/31 03:05:18;;;;;;;26.23;16.23;;;;;;;14.90;58.90;102219.00;5013589;28;20120;-83
2021/05/31 03:07:44;;;;;;;25.85;15.07;;;;;;;14.96;59.28;102220.34;5031861;28;20130;-83
2021/05/31 03:10:11;;;;;;;23.60;15.40;;;;;;;14.94;59.09;102222.34;5031533;28;20102;-83
2021/05/31 03:12:37;;;;;;;23.08;15.98;;;;;;;14.96;59.09;102225.75;5031661;28;20417;-83
2021/05/31 03:15:05;;;;;;;22.20;14.82;;;;;;;15.02;58.62;102222.53;5031651;28;20033;-83
2021/05/31 03:17:30;;;;;;;21.38;14.75;;;;;;;15.01;58.72;102223.53;5032174;28;20171;-83
2021/05/31 03:19:56;;;;;;;19.10;12.48;;;;;;;14.97;59.38;102222.09;5015263;28;20120;-84
2021/05/31 03:22:22;;;;;;;26.15;16.35;;;;;;;14.97;59.45;102221.19;5013328;28;20538;-83
2021/05/31 03:24:47;;;;;;;27.48;15.95;;;;;;;14.98;59.06;102223.81;5013527;28;20021;-83
2021/05/31 03:27:12;;;;;;;32.83;17.25;;;;;;;15.07;58.65;102222.16;5013269;28;20033;-83
2021/05/31 03:29:38;;;;;;;25.40;16.05;;;;;;;15.05;59.42;102219.56;5030951;28;20073;-83
2021/05/31 03:32:03;;;;;;;25.55;16.60;;;;;;;15.01;59.93;102223.53;5013206;28;20037;-83
2021/05/31 03:34:29;;;;;;;20.92;14.95;;;;;;;15.04;59.34;102215.16;5012944;28;20029;-83
2021/05/31 03:36:54;;;;;;;23.85;14.77;;;;;;;15.09;59.20;102223.78;5013201;28;20022;-83
2021/05/31 03:39:19;;;;;;;28.73;16.00;;;;;;;15.13;58.70;102224.38;5013222;28;20025;-83
2021/05/31 03:41:45;;;;;;;24.50;14.82;;;;;;;15.17;58.81;102220.41;5012380;28;20113;-83
2021/05/31 03:44:10;;;;;;;29.00;16.52;;;;;;;15.11;59.12;102213.63;5012930;28;20037;-83
2021/05/31 03:46:36;;;;;;;16.35;12.30;;;;;;;15.21;58.57;102208.28;5014850;28;20071;-83
2021/05/31 03:49:03;;;;;;;24.55;14.57;;;;;;;15.14;58.59;102213.38;5012800;28;20029;-84
2021/05/31 03:51:28;;;;;;;18.17;14.60;;;;;;;15.06;59.17;102206.88;5030664;28;20033;-83
2021/05/31 03:53:53;;;;;;;19.10;12.38;;;;;;;15.12;58.99;102207.25;5012926;28;20036;-83
2021/05/31 03:56:19;;;;;;;25.80;15.02;;;;;;;15.12;59.19;102211.78;5030528;28;20112;-83
2021/05/31 03:58:45;;;;;;;21.75;12.43;;;;;;;15.17;59.37;102213.13;5030881;28;20393;-83
2021/05/31 04:01:13;;;;;;;20.45;13.75;;;;;;;15.16;59.14;102210.56;5012616;28;20520;-83
2021/05/31 04:03:39;;;;;;;22.95;14.10;;;;;;;15.11;59.89;102210.94;5030787;28;20040;-83
2021/05/31 04:14:09;;;;;;;25.05;14.98;;;;;;;15.29;59.49;102207.66;5033019;28;20048;-84
2021/05/31 04:16:37;;;;;;;18.02;13.80;;;;;;;15.36;59.91;102201.56;5030346;28;20120;-84
2021/05/31 04:19:04;;;;;;;25.40;16.90;;;;;;;15.36;60.14;102206.13;5030519;28;20033;-84
2021/05/31 04:21:30;;;;;;;23.23;16.52;;;;;;;15.39;60.16;102204.03;5030258;28;20470;-83
2021/05/31 04:23:56;;;;;;;25.80;15.82;;;;;;;15.48;59.91;102202.38;5012360;28;20036;-84
2021/05/31 04:26:21;;;;;;;22.13;15.07;;;;;;;15.52;59.69;102198.44;5045254;28;20029;-84
2021/05/31 04:28:48;;;;;;;28.58;17.25;;;;;;;15.55;59.80;102202.69;5012398;28;20029;-84
2021/05/31 04:31:13;;;;;;;26.63;16.48;;;;;;;15.61;60.39;102191.31;5012019;28;20282;-84
2021/05/31 04:33:39;;;;;;;30.17;17.17;;;;;;;15.61;60.54;102192.22;5029784;28;20489;-84
2021/05/31 04:36:05;;;;;;;33.58;19.45;;;;;;;15.68;60.21;102187.13;5011724;28;20028;-84
2021/05/31 04:38:30;;;;;;;27.83;16.35;;;;;;;15.70;60.58;102186.97;5030072;28;20108;-84
2021/05/31 04:40:56;;;;;;;21.67;16.80;;;;;;;15.73;60.70;102186.72;5029770;28;20517;-84
2021/05/31 04:43:21;;;;;;;22.77;15.82;;;;;;;15.82;60.45;102180.50;5031976;28;20076;-83
2021/05/31 04:45:47;;;;;;;21.42;14.57;;;;;;;15.81;60.70;102186.91;5011879;28;20030;-84
2021/05/31 04:48:12;;;;;;;23.45;15.27;;;;;;;15.87;60.72;102186.38;5029867;28;20479;-84
2021/05/31 04:50:38;;;;;;;30.13;16.42;;;;;;;15.86;61.30;102179.25;5011636;28;20087;-84
2021/05/31 04:53:03;;;;;;;27.35;15.65;;;;;;;15.91;61.45;102181.53;5011647;28;20044;-84
2021/05/31 04:55:29;;;;;;;24.02;16.13;;;;;;;15.93;61.66;102180.41;5011920;28;20061;-84
2021/05/31 04:57:54;;;;;;;26.30;16.00;;;;;;;15.93;61.93;102180.41;5029752;28;20116;-84
2021/05/31 05:00:19;;;;;;;25.20;17.15;;;;;;;15.97;61.97;102179.13;5011746;28;20417;-84
2021/05/31 05:02:45;;;;;;;26.52;18.15;;;;;;;15.98;63.67;102180.88;5029750;28;20064;-84
2021/05/31 05:05:11;;;;;;;36.33;19.38;;;;;;;16.05;63.83;102181.19;5011939;28;20077;-84
2021/05/31 05:07:44;;;;;;;32.63;19.33;;;;;;;16.15;63.89;102189.34;5029360;28;20033;-83
2021/05/31 05:10:11;;;;;;;38.25;20.45;;;;;;;16.22;63.64;102194.13;5011416;28;20611;-84
2021/05/31 05:12:36;;;;;;;35.45;20.60;;;;;;;16.27;63.99;102188.25;5012336;28;20034;-84
2021/05/31 05:15:02;;;;;;;28.10;18.95;;;;;;;16.28;63.76;102193.56;5029259;28;20034;-84
2021/05/31 05:17:28;;;;;;;26.42;17.27;;;;;;;16.35;63.22;102188.44;5029440;28;20029;-84
2021/05/31 05:19:53;;;;;;;30.08;18.75;;;;;;;16.34;63.27;102192.13;5044470;28;20392;-84
2021/05/31 05:22:18;;;;;;;31.45;18.52;;;;;;;16.40;63.48;102183.44;5011140;28;20029;-84
2021/05/31 05:24:44;;;;;;;26.88;16.45;;;;;;;16.34;63.70;102183.97;5018464;28;20045;-83
2021/05/31 05:27:12;;;;;;;22.88;16.02;;;;;;;16.34;64.15;102186.69;5010317;23;20051;-83
2021/05/31 05:29:40;;;;;;;28.83;18.75;;;;;;;16.36;63.92;102173.84;4961719;28;20030;-81
2021/05/31 05:32:09;;;;;;;26.85;17.30;;;;;;;16.47;63.32;102187.34;4951941;28;20491;-81
2021/05/31 05:34:34;;;;;;;27.80;17.80;;;;;;;16.51;63.52;102191.47;4962940;28;20037;-82
2021/05/31 05:37:15;;;;;;;29.02;18.85;;;;;;;16.46;63.41;102193.75;4973433;28;20467;-82
2021/05/31 05:49:46;;;;;;;19.58;16.08;;;;;;;16.78;62.10;102181.84;4981427;28;20034;-81
2021/05/31 05:52:12;;;;;;;28.90;16.48;;;;;;;16.80;62.72;102182.53;4969090;28;20123;-81
2021/05/31 05:54:37;;;;;;;22.85;16.80;;;;;;;16.91;62.15;102179.69;4979923;28;20026;-81
2021/05/31 05:57:03;;;;;;;22.73;15.85;;;;;;;17.00;61.62;102183.44;4957322;28;20026;-81
2021/05/31 05:59:29;;;;;;;20.25;13.35;;;;;;;17.02;60.79;102175.13;4986539;28;20038;-80
2021/05/31 06:01:54;;;;;;;22.90;12.40;;;;;;;17.06;60.02;102184.72;4969887;28;20034;-81
2021/05/31 06:04:19;;;;;;;21.33;12.77;;;;;;;17.12;60.09;102185.00;4985822;28;20049;-82
2021/05/31 06:06:45;;;;;;;20.05;13.68;;;;;;;17.24;60.12;102193.88;4960777;28;20029;-82
2021/05/31 06:09:18;;;;;;;18.95;12.93;;;;;;;17.19;59.31;102193.44;4958140;28;20066;-82
2021/05/31 06:11:44;;;;;;;15.55;11.25;;;;;;;17.25;56.55;102197.44;4971452;28;20027;-82
2021/05/31 06:14:10;;;;;;;16.60;10.70;;;;;;;17.28;56.89;102192.56;4984796;28;20084;-81
2021/05/31 06:16:36;;;;;;;13.82;10.55;;;;;;;17.24;57.74;102188.44;4980279;28;20023;-81
2021/05/31 06:19:02;;;;;;;18.05;10.55;;;;;;;17.08;56.08;102190.84;4974500;28;20561;-82
2021/05/31 06:21:27;;;;;;;17.50;11.10;;;;;;;17.23;56.07;102195.75;4967244;28;20057;-82
2021/05/31 06:23:54;;;;;;;13.70;8.88;;;;;;;17.23;54.60;102189.41;4969451;28;20145;-81
2021/05/31 06:26:19;;;;;;;15.27;9.82;;;;;;;17.33;54.94;102186.72;4964072;28;20120;-81
2021/05/31 06:28:45;;;;;;;15.32;9.18;;;;;;;17.34;53.13;102189.28;4966923;28;20074;-82
2021/05/31 06:31:10;;;;;;;13.27;8.88;;;;;;;17.43;53.74;102188.41;4965738;28;20046;-82
2021/05/31 06:33:35;;;;;;;17.70;11.05;;;;;;;17.48;54.15;102177.09;4961816;28;20030;-81
2021/05/31 06:36:06;;;;;;;18.58;11.00;;;;;;;17.44;54.10;102181.94;4951205;28;20547;-82
2021/05/31 06:38:32;;;;;;;15.35;10.73;;;;;;;17.48;54.14;102187.09;4964189;28;20403;-81
2021/05/31 06:40:57;;;;;;;16.52;9.23;;;;;;;17.42;52.95;102175.81;4978342;28;20447;-82
2021/05/31 06:43:23;;;;;;;20.17;9.88;;;;;;;17.32;53.78;102183.13;4989662;28;20042;-82
2021/05/31 06:45:48;;;;;;;15.98;9.75;;;;;;;17.43;53.05;102182.97;4956014;28;20504;-82
2021/05/31 06:48:14;;;;;;;17.10;10.63;;;;;;;17.58;53.66;102191.53;4987744;28;20041;-83
2021/05/31 06:50:46;;;;;;;12.90;10.15;;;;;;;17.60;52.89;102189.53;4982541;28;20089;-82
2021/05/31 06:53:11;;;;;;;;;;;;;;;17.55;51.37;102188.25;4962199;28;20033;-82
2021/05/31 06:55:36;;;;;;;13.15;9.20;;;;;;;17.56;51.30;102184.53;4975776;28;19918;-83
2021/05/31 06:58:03;;;;;;;12.23;8.70;;;;;;;17.58;51.07;102196.97;4986695;28;20069;-82
2021/05/31 07:00:29;;;;;;;12.85;9.40;;;;;;;17.61;50.54;102185.81;4966530;28;20019;-83
2021/05/31 07:02:55;;;;;;;15.85;9.82;;;;;;;17.72;51.44;102192.91;4976763;28;20045;-83
2021/05/31 07:05:22;;;;;;;11.32;8.18;;;;;;;17.72;51.66;102187.47;4988307;28;20037;-82
2021/05/31 07:07:48;;;;;;;12.75;9.13;;;;;;;17.62;51.94;102183.94;4954965;28;20475;-82
2021/05/31 07:10:14;;;;;;;13.95;8.55;;;;;;;17.81;52.44;102186.63;4969105;28;20034;-83
2021/05/31 07:12:42;;;;;;;9.65;7.25;;;;;;;17.85;51.19;102182.63;4982295;28;20066;-82
2021/05/31 07:15:11;;;;;;;13.27;8.65;;;;;;;17.85;51.72;102187.22;4974323;28;20030;-83
2021/05/31 07:17:36;;;;;;;12.38;7.28;;;;;;;17.92;52.06;102181.00;4967716;28;20038;-82
2021/05/31 07:20:07;;;;;;;15.82;7.65;;;;;;;17.94;50.73;102178.16;4983844;28;20045;-83
2021/05/31 07:22:33;;;;;;;13.48;8.25;;;;;;;17.90;51.51;102180.28;4973176;28;20062;-82
2021/05/31 07:24:59;;;;;;;12.60;7.40;;;;;;;17.99;50.65;102177.69;4962553;28;20114;-82
2021/05/31 07:27:24;;;;;;;14.73;8.88;;;;;;;17.96;51.12;102180.72;4963771;28;20121;-83
2021/05/31 07:29:50;;;;;;;9.65;7.28;;;;;;;17.95;50.86;102176.28;4972333;28;20030;-83
2021/05/31 07:32:17;;;;;;;13.68;7.85;;;;;;;17.92;51.00;102182.88;4988520;28;20121;-82
2021/05/31 07:34:43;;;;;;;14.73;7.15;;;;;;;17.98;51.08;102176.84;4964490;28;20029;-83
2021/05/31 07:37:08;;;;;;;11.40;6.38;;;;;;;18.06;50.47;102181.53;4978663;28;20394;-83
2021/05/31 07:39:34;;;;;;;9.32;6.20;;;;;;;18.12;50.10;102183.66;4988794;28;20030;-83
2021/05/31 07:42:00;;;;;;;11.90;6.78;;;;;;;17.99;49.47;102188.59;4971991;28;20053;-82
2021/05/31 07:44:25;;;;;;;9.18;6.13;;;;;;;18.03;49.38;102176.38;4984332;28;20035;-83
2021/05/31 07:46:51;;;;;;;10.40;5.75;;;;;;;18.08;49.04;102180.38;4976951;28;20038;-83
2021/05/31 07:49:19;;;;;;;9.75;6.22;;;;;;;18.16;48.92;102181.50;4971015;28;20332;-83
2021/05/31 07:51:46;;;;;;;10.52;5.97;;;;;;;18.20;49.17;102180.19;4956080;28;20066;-83
2021/05/31 07:54:16;;;;;;;9.70;5.60;;;;;;;18.20;48.21;102180.19;4986645;28;20057;-83
2021/05/31 07:56:42;;;;;;;9.07;5.28;;;;;;;18.22;48.48;102186.34;4981463;28;20034;-83
2021/05/31 07:59:07;;;;;;;8.98;5.53;;;;;;;18.21;48.93;102179.16;4978274;28;20038;-82
2021/05/31 08:01:34;;;;;;;8.82;5.38;;;;;;;18.25;47.98;102176.00;4970612;28;20128;-82
2021/05/31 08:04:00;;;;;;;12.20;5.78;;;;;;;18.26;47.69;102175.00;4971131;28;20041;-83
2021/05/31 08:06:26;;;;;;;11.45;5.78;;;;;;;18.35;47.39;102178.69;4984570;28;20027;-83
2021/05/31 08:08:51;;;;;;;9.25;5.30;;;;;;;18.43;47.78;102172.50;4976404;28;20109;-83
2021/05/31 08:11:16;;;;;;;13.15;5.88;;;;;;;18.34;47.33;102166.09;4988093;28;20027;-83
2021/05/31 08:13:42;;;;;;;19.63;6.07;;;;;;;18.34;47.86;102166.09;4955936;28;20089;-82
2021/05/31 08:16:08;;;;;;;11.98;6.18;;;;;;;18.41;47.52;102158.16;4986151;28;20030;-82
2021/05/31 08:18:34;;;;;;;9.60;5.15;;;;;;;18.47;47.89;102163.84;4987755;28;20484;-82
2021/05/31 08:21:01;;;;;;;10.25;5.60;;;;;;;18.45;46.94;102157.69;4979759;28;20179;-81
2021/05/31 08:23:26;;;;;;;11.43;6.30;;;;;;;18.51;47.27;102165.25;4980584;28;20038;-82
2021/05/31 08:25:51;;;;;;;10.95;5.63;;;;;;;18.58;47.23;102157.34;4987149;28;20371;-82
2021/05/31 08:28:17;;;;;;;9.85;4.95;;;;;;;18.62;46.90;102160.59;4971346;28;20469;-82
2021/05/31 08:30:43;;;;;;;8.48;5.25;;;;;;;18.57;47.23;102152.88;4981226;28;20022;-81
2021/05/31 08:33:09;;;;;;;10.75;5.70;;;;;;;18.57;47.00;102155.59;4959620;28;20491;-82
2021/05/31 08:35:39;;;;;;;8.95;5.07;;;;;;;18.66;47.27;102156.56;4986769;28;20116;-82
2021/05/31 08:38:04;;;;;;;11.38;5.03;;;;;;;18.64;46.60;102148.53;4971244;28;20030;-81
2021/05/31 08:40:30;;;;;;;9.77;4.78;;;;;;;18.75;46.04;102150.22;4964464;28;20471;-81
2021/05/31 08:42:56;;;;;;;7.88;4.80;;;;;;;18.75;45.38;102150.22;4975128;28;20030;-82
2021/05/31 08:45:23;;;;;;;5.93;4.82;;;;;;;18.80;44.72;102147.88;4986297;28;20041;-82
2021/05/31 08:47:52;;;;;;;7.85;4.43;;;;;;;18.83;45.19;102142.97;4953773;28;20073;-81
2021/05/31 08:50:23;;;;;;;7.70;4.93;;;;;;;18.88;44.78;102145.22;4968918;28;20034;-82
2021/05/31 08:52:51;;;;;;;8.88;4.30;;;;;;;18.90;44.57;102145.06;4962385;28;20019;-80
2021/05/31 08:55:19;;;;;;;7.82;4.60;;;;;;;18.94;44.05;102149.19;4977867;28;20041;-82
2021/05/31 08:57:45;;;;;;;6.68;4.00;;;;;;;19.01;43.91;102150.28;4968317;28;20065;-82
2021/05/31 09:00:13;;;;;;;7.80;4.53;;;;;;;19.05;43.72;102158.00;4952378;28;20045;-82
2021/05/31 09:02:39;;;;;;;6.38;3.97;;;;;;;19.10;43.35;102146.63;4962285;28;20026;-83
2021/05/31 09:05:14;;;;;;;9.07;3.58;;;;;;;19.13;43.18;102139.97;4976074;28;20034;-82
2021/05/31 09:07:47;;;;;;;7.82;3.67;;;;;;;19.05;41.89;102146.22;4969009;28;20026;-82
2021/05/31 09:10:12;;;;;;;8.40;3.72;;;;;;;19.00;42.46;102149.41;4970449;28;20364;-82
2021/05/31 09:12:45;;;;;;;4.65;3.53;;;;;;;19.10;41.24;102143.91;4979504;28;20035;-86
2021/05/31 09:15:13;;;;;;;4.80;3.30;;;;;;;19.17;41.05;102138.66;4960483;28;20533;-83
2021/05/31 09:17:42;;;;;;;5.45;3.40;;;;;;;19.16;40.99;102143.28;4985907;28;20030;-83
2021/05/31 09:20:09;;;;;;;7.05;3.72;;;;;;;19.24;41.00;102140.59;4970122;28;20031;-82
2021/05/31 09:22:49;;;;;;;7.40;3.50;;;;;;;19.24;40.17;102142.47;4963826;28;20086;-83
2021/05/31 09:25:33;;;;;;;6.72;3.08;;;;;;;19.29;37.20;102138.25;4977953;28;20030;-83
2021/05/31 09:28:02;;;;;;;4.40;2.67;;;;;;;19.29;35.89;102132.78;4967354;28;20479;-83
2021/05/31 09:30:36;;;;;;;7.18;2.78;;;;;;;19.33;36.34;102127.88;4973971;28;20489;-83
2021/05/31 09:33:03;;;;;;;8.50;3.40;;;;;;;19.41;37.54;102127.09;4948937;28;20023;-83
2021/05/31 09:35:29;;;;;;;6.72;3.47;;;;;;;19.48;40.08;102130.88;4961296;28;20550;-83
2021/05/31 09:38:03;;;;;;;6.13;4.13;;;;;;;19.50;41.42;102128.84;4953276;28;20050;-83
2021/05/31 09:40:29;;;;;;;9.15;3.95;;;;;;;19.62;41.27;102124.84;4971462;28;20454;-83
2021/05/31 09:42:56;;;;;;;7.32;4.18;;;;;;;19.59;41.29;102130.63;4977738;28;20030;-83
2021/05/31 09:45:23;;;;;;;12.75;4.07;;;;;;;19.58;40.92;102123.44;4960273;28;20026;-83
2021/05/31 09:47:49;;;;;;;11.82;3.97;;;;;;;19.57;37.74;102124.47;4970671;28;20038;-84
2021/05/31 09:50:25;;;;;;;5.88;3.00;;;;;;;19.63;38.77;102132.00;4982659;28;20042;-82
2021/05/31 09:53:06;;;;;;;6.47;3.20;;;;;;;19.66;39.24;102123.53;4972440;28;20502;-83
2021/05/31 09:55:54;;;;;;;6.28;3.72;;;;;;;19.77;40.97;102118.78;4949388;28;20646;-83
2021/05/31 09:58:24;;;;;;;5.30;3.40;;;;;;;19.81;41.23;102121.03;4941988;28;20074;-83
2021/05/31 10:00:59;;;;;;;7.05;3.83;;;;;;;19.89;41.26;102115.59;4961056;28;20038;-83
2021/05/31 10:03:50;;;;;;;8.60;3.70;;;;;;;19.95;41.88;102111.38;4960514;28;20465;-83
2021/05/31 10:06:37;;;;;;;4.90;3.38;;;;;;;19.91;40.32;102118.19;4964192;28;20032;-83
2021/05/31 10:09:02;;;;;;;8.70;3.50;;;;;;;19.91;39.57;102116.31;4958634;28;20846;-83
2021/05/31 10:11:28;;;;;;;10.35;3.83;;;;;;;20.05;40.78;102109.38;4968009;28;20445;-82
2021/05/31 10:13:57;;;;;;;6.40;3.40;;;;;;;20.02;39.46;102115.19;4955351;28;20027;-83
2021/05/31 10:16:25;;;;;;;5.38;3.58;;;;;;;20.07;40.17;102115.50;5118889;23;20464;-82
2021/05/31 10:18:51;;;;;;;9.00;4.60;;;;;;;20.14;39.82;102107.50;4993809;28;20476;-83
2021/05/31 10:21:17;;;;;;;6.57;3.88;;;;;;;20.21;40.71;102105.84;5002251;28;20038;-81
2021/05/31 10:23:42;;;;;;;7.55;4.10;;;;;;;20.20;40.63;102104.13;5005591;28;20113;-82
2021/05/31 10:26:10;;;;;;;7.15;3.88;;;;;;;20.23;39.75;102108.41;5005131;28;20402;-82
2021/05/31 10:28:39;;;;;;;5.30;4.20;;;;;;;20.14;40.41;102111.13;5007394;28;20033;-83
2021/05/31 10:31:07;;;;;;;6.30;3.75;;;;;;;20.17;40.67;102110.78;4996439;28;20335;-82
2021/05/31 10:33:40;;;;;;;9.57;3.72;;;;;;;20.22;40.24;102101.22;5007356;28;20516;-83
2021/05/31 10:36:19;;;;;;;8.60;4.03;;;;;;;20.25;40.58;102111.84;4999084;28;20026;-82
2021/05/31 10:38:48;;;;;;;8.07;4.00;;;;;;;20.23;40.29;102116.59;5006738;28;20393;-83
2021/05/31 10:41:23;;;;;;;5.25;3.38;;;;;;;20.36;40.04;102104.19;5008205;28;20030;-83
2021/05/31 10:43:51;;;;;;;7.07;3.72;;;;;;;20.41;41.12;102109.13;4999702;28;20034;-82
2021/05/31 10:46:24;;;;;;;9.73;4.25;;;;;;;20.46;39.62;102103.19;4990803;28;20026;-83
2021/05/31 10:48:51;;;;;;;9.57;4.43;;;;;;;20.49;40.19;102102.84;5008769;28;20030;-82
2021/05/31 10:51:23;;;;;;;7.78;4.13;;;;;;;20.56;40.24;102096.56;5007560;28;20413;-83
2021/05/31 10:53:49;;;;;;;6.63;4.00;;;;;;;20.58;40.33;102099.97;4991106;28;20033;-82
2021/05/31 10:56:17;;;;;;;6.20;4.20;;;;;;;20.53;40.05;102096.91;5009318;28;20041;-82
2021/05/31 10:58:47;;;;;;;7.68;4.70;;;;;;;20.57;40.67;102091.94;5009321;28;20074;-83
2021/05/31 11:01:14;;;;;;;7.18;4.18;;;;;;;20.63;40.74;102091.25;5008238;28;20034;-82
2021/05/31 11:04:06;;;;;;;6.72;4.35;;;;;;;20.53;40.36;102093.31;5007059;28;20520;-83
2021/05/31 11:06:35;;;;;;;7.93;4.60;;;;;;;20.78;40.13;102089.56;5003741;28;20029;-82
2021/05/31 11:09:07;;;;;;;6.35;4.68;;;;;;;20.85;40.68;102089.78;5009289;28;20409;-82
2021/05/31 11:11:53;;;;;;;9.65;4.15;;;;;;;20.86;42.32;102091.47;5008683;28;20842;-82
2021/05/31 11:14:38;;;;;;;5.57;4.05;;;;;;;20.84;39.66;102088.88;5008356;28;20498;-83
2021/05/31 11:17:08;;;;;;;10.25;4.88;;;;;;;20.95;39.92;102082.25;4987006;28;20037;-83
2021/05/31 11:19:43;;;;;;;6.22;3.92;;;;;;;21.00;41.08;102088.06;5004454;28;20026;-83
2021/05/31 11:22:28;;;;;;;11.00;5.18;;;;;;;21.01;40.79;102091.63;4989566;28;20033;-83
2021/05/31 11:24:55;;;;;;;6.05;4.25;;;;;;;21.07;39.84;102086.34;4984370;28;20392;-83
2021/05/31 11:27:34;;;;;;;5.88;4.28;;;;;;;21.09;39.57;102087.03;5003867;28;20090;-83
2021/05/31 11:30:01;;;;;;;7.40;4.22;;;;;;;21.13;41.12;102089.41;5003485;28;20502;-83
2021/05/31 11:32:27;;;;;;;7.53;4.72;;;;;;;21.14;39.67;102086.50;5008147;28;20034;-83
2021/05/31 11:34:57;;;;;;;8.68;4.00;;;;;;;21.29;39.75;102078.44;5009097;28;20363;-83
2021/05/31 11:37:33;;;;;;;6.70;3.75;;;;;;;21.36;40.79;102084.94;4991982;28;20036;-83
2021/05/31 11:40:00;;;;;;;5.93;4.22;;;;;;;21.38;39.22;102074.69;5013348;28;20101;-84